Old Saybrook, Connecticut
Current Conditions -  °F | °C
As of 11:55 PM on Saturday 22 Nov 2014 (Local Time) from KSNC Reporting Station
Clear Clear  
Wind Chill: 37°   Ceiling: Unl
Heat Index: 43°   Visibility: 10mi
Dew Point: 28°   Wind: 12mph
Humidity: 57%   Direction: 230°SW
Pressure: 30.16"   Gusts: 20mph
Location:  41.29°N, 72.38°W
Report Text: KSNC 230455Z AUTO 23010G17KT 010V020 10SM CLR 06/M02 A3016 RMK AO2
Loading
Personal Weather Stations






























Interactive Weather Map New forecast layout! Learn more

10-Day Weather Forecast

Advertisements
Track Severe Weather on mobile